sensor_id;sensor_type;location;lat;lon;timestamp;pressure;altitude;pressure_sealevel;temperature;humidity
35676;BME280;21790;42.668;23.298;2023-02-20T00:01:53;95008.41;;;18.53;33.28
35676;BME280;21790;42.668;23.298;2023-02-20T00:04:19;95006.84;;;18.41;33.41
35676;BME280;21790;42.668;23.298;2023-02-20T00:06:45;95002.25;;;18.27;33.63
35676;BME280;21790;42.668;23.298;2023-02-20T00:09:11;94992.59;;;18.33;33.58
35676;BME280;21790;42.668;23.298;2023-02-20T00:11:37;94991.53;;;18.14;34.01
35676;BME280;21790;42.668;23.298;2023-02-20T00:14:02;94996.09;;;18.17;34.14
35676;BME280;21790;42.668;23.298;2023-02-20T00:16:30;95002.00;;;18.36;33.84
35676;BME280;21790;42.668;23.298;2023-02-20T00:19:01;94987.44;;;18.10;34.29
35676;BME280;21790;42.668;23.298;2023-02-20T00:21:26;94991.28;;;18.18;34.27
35676;BME280;21790;42.668;23.298;2023-02-20T00:23:52;94988.53;;;18.34;33.87
35676;BME280;21790;42.668;23.298;2023-02-20T00:26:17;94994.84;;;18.24;34.22
35676;BME280;21790;42.668;23.298;2023-02-20T00:28:43;94991.28;;;18.23;34.25
35676;BME280;21790;42.668;23.298;2023-02-20T00:31:15;94995.66;;;17.65;35.53
35676;BME280;21790;42.668;23.298;2023-02-20T00:33:41;94993.16;;;17.78;35.24
35676;BME280;21790;42.668;23.298;2023-02-20T00:36:07;94995.09;;;17.19;36.26
35676;BME280;21790;42.668;23.298;2023-02-20T00:38:32;94989.97;;;17.11;36.33
35676;BME280;21790;42.668;23.298;2023-02-20T00:40:58;94985.38;;;17.45;35.72
35676;BME280;21790;42.668;23.298;2023-02-20T00:43:23;94979.13;;;17.62;35.50
35676;BME280;21790;42.668;23.298;2023-02-20T00:45:48;94976.13;;;17.71;35.31
35676;BME280;21790;42.668;23.298;2023-02-20T00:48:14;94990.16;;;17.87;35.07
35676;BME280;21790;42.668;23.298;2023-02-20T00:50:39;94993.94;;;17.79;35.16
35676;BME280;21790;42.668;23.298;2023-02-20T00:53:05;95010.44;;;17.77;35.19
35676;BME280;21790;42.668;23.298;2023-02-20T00:55:30;95007.47;;;17.91;35.07
35676;BME280;21790;42.668;23.298;2023-02-20T00:57:56;95010.28;;;17.97;34.91
35676;BME280;21790;42.668;23.298;2023-02-20T01:00:26;95002.38;;;17.95;35.08
35676;BME280;21790;42.668;23.298;2023-02-20T01:02:52;95013.78;;;17.86;35.12
35676;BME280;21790;42.668;23.298;2023-02-20T01:05:18;95014.75;;;17.72;35.23
35676;BME280;21790;42.668;23.298;2023-02-20T01:07:43;95035.09;;;17.78;35.32
35676;BME280;21790;42.668;23.298;2023-02-20T01:10:11;95036.13;;;17.81;35.28
35676;BME280;21790;42.668;23.298;2023-02-20T01:12:37;95040.03;;;17.94;35.12
35676;BME280;21790;42.668;23.298;2023-02-20T01:15:04;95027.50;;;17.84;35.35
35676;BME280;21790;42.668;23.298;2023-02-20T01:17:33;95032.28;;;17.78;35.36
35676;BME280;21790;42.668;23.298;2023-02-20T01:19:58;95020.44;;;17.52;35.84
35676;BME280;21790;42.668;23.298;2023-02-20T01:22:27;95031.78;;;17.74;35.51
35676;BME280;21790;42.668;23.298;2023-02-20T01:24:52;95032.16;;;17.56;35.74
35676;BME280;21790;42.668;23.298;2023-02-20T01:27:18;95028.97;;;17.74;35.58
35676;BME280;21790;42.668;23.298;2023-02-20T01:29:43;95037.13;;;17.72;35.43
35676;BME280;21790;42.668;23.298;2023-02-20T01:32:12;95048.28;;;17.72;35.95
35676;BME280;21790;42.668;23.298;2023-02-20T01:34:38;95052.81;;;17.64;35.89
35676;BME280;21790;42.668;23.298;2023-02-20T01:37:06;95049.50;;;17.60;36.18
35676;BME280;21790;42.668;23.298;2023-02-20T01:39:33;95059.41;;;17.61;36.16
35676;BME280;21790;42.668;23.298;2023-02-20T01:42:01;95058.47;;;17.75;35.98
35676;BME280;21790;42.668;23.298;2023-02-20T01:44:31;95065.56;;;17.71;36.06
35676;BME280;21790;42.668;23.298;2023-02-20T01:47:04;95061.75;;;17.74;35.97
35676;BME280;21790;42.668;23.298;2023-02-20T01:49:57;95068.13;;;17.80;35.98
35676;BME280;21790;42.668;23.298;2023-02-20T01:52:27;95059.09;;;17.59;36.67
35676;BME280;21790;42.668;23.298;2023-02-20T01:55:00;95065.44;;;17.54;36.80
35676;BME280;21790;42.668;23.298;2023-02-20T01:57:29;95073.28;;;17.50;36.93
35676;BME280;21790;42.668;23.298;2023-02-20T02:00:07;95078.81;;;17.44;37.32
35676;BME280;21790;42.668;23.298;2023-02-20T02:02:37;95089.22;;;17.44;37.12
35676;BME280;21790;42.668;23.298;2023-02-20T02:05:08;95088.19;;;17.41;37.33
35676;BME280;21790;42.668;23.298;2023-02-20T02:07:35;95081.53;;;17.33;37.37
35676;BME280;21790;42.668;23.298;2023-02-20T02:10:17;95085.63;;;17.38;37.53
35676;BME280;21790;42.668;23.298;2023-02-20T02:12:47;95097.41;;;16.90;38.14
35676;BME280;21790;42.668;23.298;2023-02-20T02:15:16;95094.59;;;17.16;37.54
35676;BME280;21790;42.668;23.298;2023-02-20T02:18:02;95079.16;;;17.21;37.26
35676;BME280;21790;42.668;23.298;2023-02-20T02:21:31;95082.25;;;17.28;37.21
35676;BME280;21790;42.668;23.298;2023-02-20T02:38:24;95104.91;;;17.04;36.69
35676;BME280;21790;42.668;23.298;2023-02-20T02:41:00;95106.16;;;17.03;36.78
35676;BME280;21790;42.668;23.298;2023-02-20T02:43:35;95104.25;;;16.89;36.86
35676;BME280;21790;42.668;23.298;2023-02-20T02:46:27;95092.31;;;16.89;36.96
35676;BME280;21790;42.668;23.298;2023-02-20T02:49:20;95101.94;;;16.62;37.45
35676;BME280;21790;42.668;23.298;2023-02-20T02:51:51;95109.75;;;16.38;37.79
35676;BME280;21790;42.668;23.298;2023-02-20T02:54:21;95108.91;;;16.52;37.57
35676;BME280;21790;42.668;23.298;2023-02-20T02:59:46;95104.75;;;16.42;37.36
35676;BME280;21790;42.668;23.298;2023-02-20T03:02:14;95098.03;;;16.54;37.26
35676;BME280;21790;42.668;23.298;2023-02-20T03:04:43;95083.88;;;16.57;37.20
35676;BME280;21790;42.668;23.298;2023-02-20T03:07:13;95093.53;;;16.82;36.80
35676;BME280;21790;42.668;23.298;2023-02-20T03:09:53;95096.03;;;16.80;36.79
35676;BME280;21790;42.668;23.298;2023-02-20T03:12:21;95098.28;;;16.76;36.61
35676;BME280;21790;42.668;23.298;2023-02-20T03:15:05;95103.63;;;16.74;36.87
35676;BME280;21790;42.668;23.298;2023-02-20T03:18:34;95108.63;;;16.70;36.89
35676;BME280;21790;42.668;23.298;2023-02-20T03:21:13;95114.09;;;16.59;36.81
35676;BME280;21790;42.668;23.298;2023-02-20T03:23:45;95119.78;;;16.70;36.74
35676;BME280;21790;42.668;23.298;2023-02-20T03:26:16;95125.59;;;16.66;36.73
35676;BME280;21790;42.668;23.298;2023-02-20T03:28:47;95131.25;;;16.52;36.79
35676;BME280;21790;42.668;23.298;2023-02-20T03:33:45;95141.34;;;16.69;36.67
35676;BME280;21790;42.668;23.298;2023-02-20T03:36:43;95154.63;;;16.75;36.48
35676;BME280;21790;42.668;23.298;2023-02-20T03:39:36;95156.34;;;16.72;36.32
35676;BME280;21790;42.668;23.298;2023-02-20T03:42:22;95147.00;;;16.55;36.62
35676;BME280;21790;42.668;23.298;2023-02-20T03:45:10;95146.53;;;16.36;37.05
35676;BME280;21790;42.668;23.298;2023-02-20T03:47:39;95154.72;;;16.05;37.54
35676;BME280;21790;42.668;23.298;2023-02-20T03:50:09;95156.78;;;16.24;37.05
35676;BME280;21790;42.668;23.298;2023-02-20T03:52:36;95156.03;;;16.09;37.02
35676;BME280;21790;42.668;23.298;2023-02-20T03:55:02;95159.06;;;16.26;36.98
35676;BME280;21790;42.668;23.298;2023-02-20T03:57:33;95160.94;;;16.35;36.69
35676;BME280;21790;42.668;23.298;2023-02-20T04:00:12;95169.88;;;16.39;36.57
35676;BME280;21790;42.668;23.298;2023-02-20T04:02:42;95176.91;;;16.34;36.50
35676;BME280;21790;42.668;23.298;2023-02-20T04:05:12;95178.56;;;16.26;37.14
35676;BME280;21790;42.668;23.298;2023-02-20T04:07:47;95181.56;;;16.22;36.94
35676;BME280;21790;42.668;23.298;2023-02-20T04:10:19;95181.50;;;15.82;37.50
35676;BME280;21790;42.668;23.298;2023-02-20T04:12:47;95182.28;;;15.82;37.56
35676;BME280;21790;42.668;23.298;2023-02-20T04:15:14;95182.16;;;15.92;37.28
35676;BME280;21790;42.668;23.298;2023-02-20T04:17:47;95171.03;;;16.12;37.04
35676;BME280;21790;42.668;23.298;2023-02-20T04:20:14;95172.22;;;16.05;37.06
35676;BME280;21790;42.668;23.298;2023-02-20T04:22:43;95164.16;;;16.27;36.56
35676;BME280;21790;42.668;23.298;2023-02-20T04:25:51;95173.97;;;16.43;36.26
35676;BME280;21790;42.668;23.298;2023-02-20T04:28:14;95183.38;;;16.05;36.72
35676;BME280;21790;42.668;23.298;2023-02-20T04:30:41;95195.13;;;15.95;41.04
35676;BME280;21790;42.668;23.298;2023-02-20T04:33:09;95193.25;;;16.82;41.07
35676;BME280;21790;42.668;23.298;2023-02-20T04:35:35;95195.69;;;17.20;38.83
35676;BME280;21790;42.668;23.298;2023-02-20T04:38:01;95192.91;;;17.51;35.33
35676;BME280;21790;42.668;23.298;2023-02-20T04:40:26;95192.84;;;17.14;35.26
35676;BME280;21790;42.668;23.298;2023-02-20T04:42:52;95183.13;;;16.44;35.98
35676;BME280;21790;42.668;23.298;2023-02-20T04:45:18;95174.56;;;16.47;35.88
35676;BME280;21790;42.668;23.298;2023-02-20T04:47:44;95177.94;;;16.16;36.27
35676;BME280;21790;42.668;23.298;2023-02-20T04:50:20;95190.41;;;16.01;36.47
35676;BME280;21790;42.668;23.298;2023-02-20T04:52:46;95185.88;;;16.03;36.04
35676;BME280;21790;42.668;23.298;2023-02-20T04:55:11;95184.38;;;15.87;36.09
35676;BME280;21790;42.668;23.298;2023-02-20T04:57:37;95191.22;;;15.86;35.94
35676;BME280;21790;42.668;23.298;2023-02-20T05:00:03;95198.22;;;15.82;36.27
35676;BME280;21790;42.668;23.298;2023-02-20T05:02:29;95211.81;;;15.74;36.05
35676;BME280;21790;42.668;23.298;2023-02-20T05:04:54;95208.63;;;15.67;35.84
35676;BME280;21790;42.668;23.298;2023-02-20T05:07:20;95220.63;;;15.73;35.73
35676;BME280;21790;42.668;23.298;2023-02-20T05:09:45;95218.91;;;15.75;35.54
35676;BME280;21790;42.668;23.298;2023-02-20T05:12:10;95229.38;;;15.66;35.52
35676;BME280;21790;42.668;23.298;2023-02-20T05:14:36;95214.22;;;15.52;35.57
35676;BME280;21790;42.668;23.298;2023-02-20T05:17:01;95239.94;;;15.47;35.42
35676;BME280;21790;42.668;23.298;2023-02-20T05:19:27;95235.53;;;15.55;35.19
35676;BME280;21790;42.668;23.298;2023-02-20T05:21:52;95234.94;;;15.66;34.99
35676;BME280;21790;42.668;23.298;2023-02-20T05:24:36;95234.19;;;15.65;34.82
35676;BME280;21790;42.668;23.298;2023-02-20T05:27:02;95241.13;;;15.70;34.86
35676;BME280;21790;42.668;23.298;2023-02-20T05:29:27;95244.66;;;15.70;34.67
35676;BME280;21790;42.668;23.298;2023-02-20T05:31:53;95244.94;;;15.72;34.63
35676;BME280;21790;42.668;23.298;2023-02-20T05:34:18;95250.88;;;15.50;35.08
35676;BME280;21790;42.668;23.298;2023-02-20T05:36:47;95249.84;;;15.48;35.51
35676;BME280;21790;42.668;23.298;2023-02-20T05:39:12;95260.00;;;15.51;35.51
35676;BME280;21790;42.668;23.298;2023-02-20T05:41:37;95263.38;;;15.55;35.51
35676;BME280;21790;42.668;23.298;2023-02-20T05:44:04;95267.13;;;15.67;35.50
35676;BME280;21790;42.668;23.298;2023-02-20T05:46:29;95265.47;;;15.31;36.27
35676;BME280;21790;42.668;23.298;2023-02-20T05:48:54;95255.63;;;15.59;35.90
35676;BME280;21790;42.668;23.298;2023-02-20T05:51:22;95264.03;;;15.50;36.14
35676;BME280;21790;42.668;23.298;2023-02-20T05:53:48;95263.59;;;15.52;36.37
35676;BME280;21790;42.668;23.298;2023-02-20T05:56:14;95254.66;;;15.62;35.97
35676;BME280;21790;42.668;23.298;2023-02-20T05:58:41;95254.75;;;15.68;35.96
35676;BME280;21790;42.668;23.298;2023-02-20T06:01:08;95244.94;;;15.87;35.66
35676;BME280;21790;42.668;23.298;2023-02-20T06:03:34;95249.72;;;16.01;35.30
35676;BME280;21790;42.668;23.298;2023-02-20T06:05:59;95261.97;;;16.09;35.08
35676;BME280;21790;42.668;23.298;2023-02-20T06:08:25;95261.97;;;16.09;35.08
35676;BME280;21790;42.668;23.298;2023-02-20T06:10:50;95268.09;;;15.64;35.30
35676;BME280;21790;42.668;23.298;2023-02-20T06:13:16;95271.84;;;15.90;34.82
35676;BME280;21790;42.668;23.298;2023-02-20T06:15:41;95277.72;;;15.92;34.15
35676;BME280;21790;42.668;23.298;2023-02-20T06:18:07;95278.91;;;16.06;34.42
35676;BME280;21790;42.668;23.298;2023-02-20T06:20:32;95272.56;;;16.05;34.00
35676;BME280;21790;42.668;23.298;2023-02-20T06:22:58;95266.91;;;16.14;34.34
35676;BME280;21790;42.668;23.298;2023-02-20T06:25:23;95272.31;;;16.38;33.91
35676;BME280;21790;42.668;23.298;2023-02-20T06:27:50;95272.66;;;16.60;33.87
35676;BME280;21790;42.668;23.298;2023-02-20T06:30:15;95271.22;;;16.85;33.27
35676;BME280;21790;42.668;23.298;2023-02-20T06:32:41;95275.56;;;16.92;33.24
35676;BME280;21790;42.668;23.298;2023-02-20T06:35:07;95280.53;;;17.02;33.03
35676;BME280;21790;42.668;23.298;2023-02-20T06:37:32;95289.88;;;17.20;32.86
35676;BME280;21790;42.668;23.298;2023-02-20T06:39:58;95283.75;;;17.15;32.65
35676;BME280;21790;42.668;23.298;2023-02-20T06:42:24;95290.88;;;17.42;32.26
35676;BME280;21790;42.668;23.298;2023-02-20T06:44:49;95283.50;;;17.19;31.72
35676;BME280;21790;42.668;23.298;2023-02-20T06:47:15;95309.88;;;17.12;31.89
35676;BME280;21790;42.668;23.298;2023-02-20T06:49:40;95294.72;;;16.99;31.96
35676;BME280;21790;42.668;23.298;2023-02-20T06:52:07;95289.47;;;17.06;31.94
35676;BME280;21790;42.668;23.298;2023-02-20T06:54:34;95301.97;;;16.91;31.83
35676;BME280;21790;42.668;23.298;2023-02-20T06:57:00;95298.06;;;16.83;32.25
35676;BME280;21790;42.668;23.298;2023-02-20T06:59:27;95299.38;;;17.07;32.11
35676;BME280;21790;42.668;23.298;2023-02-20T07:01:53;95312.31;;;17.05;31.60
35676;BME280;21790;42.668;23.298;2023-02-20T07:04:24;95314.88;;;17.29;31.62
35676;BME280;21790;42.668;23.298;2023-02-20T07:06:53;95303.94;;;16.85;31.88
35676;BME280;21790;42.668;23.298;2023-02-20T07:09:19;95308.94;;;16.81;31.81
35676;BME280;21790;42.668;23.298;2023-02-20T07:11:45;95318.81;;;16.96;31.59
35676;BME280;21790;42.668;23.298;2023-02-20T07:14:11;95322.97;;;16.86;31.47
35676;BME280;21790;42.668;23.298;2023-02-20T07:16:37;95314.09;;;16.67;31.48
35676;BME280;21790;42.668;23.298;2023-02-20T07:19:02;95325.91;;;16.97;31.23
35676;BME280;21790;42.668;23.298;2023-02-20T07:21:28;95322.91;;;17.21;31.00
35676;BME280;21790;42.668;23.298;2023-02-20T07:23:54;95315.06;;;17.25;30.05
35676;BME280;21790;42.668;23.298;2023-02-20T07:26:22;95325.00;;;17.26;30.07
35676;BME280;21790;42.668;23.298;2023-02-20T07:28:48;95318.91;;;16.67;29.95
35676;BME280;21790;42.668;23.298;2023-02-20T07:31:14;95323.50;;;16.20;30.92
35676;BME280;21790;42.668;23.298;2023-02-20T07:33:39;95325.38;;;16.44;30.53
35676;BME280;21790;42.668;23.298;2023-02-20T07:36:17;95326.38;;;16.41;30.65
35676;BME280;21790;42.668;23.298;2023-02-20T07:38:52;95327.00;;;16.50;30.38
35676;BME280;21790;42.668;23.298;2023-02-20T07:41:18;95326.75;;;16.33;30.24
35676;BME280;21790;42.668;23.298;2023-02-20T07:43:44;95320.25;;;16.57;29.91
35676;BME280;21790;42.668;23.298;2023-02-20T07:46:09;95337.31;;;16.44;30.10
35676;BME280;21790;42.668;23.298;2023-02-20T07:48:35;95335.69;;;16.38;29.96
35676;BME280;21790;42.668;23.298;2023-02-20T07:51:01;95339.84;;;16.77;30.01
35676;BME280;21790;42.668;23.298;2023-02-20T07:53:27;95330.31;;;17.04;29.44
35676;BME280;21790;42.668;23.298;2023-02-20T07:55:52;95357.47;;;17.24;29.06
35676;BME280;21790;42.668;23.298;2023-02-20T07:58:18;95340.53;;;17.53;29.07
35676;BME280;21790;42.668;23.298;2023-02-20T08:00:43;95346.06;;;17.93;28.61
35676;BME280;21790;42.668;23.298;2023-02-20T08:03:09;95342.81;;;18.01;28.26
35676;BME280;21790;42.668;23.298;2023-02-20T08:05:34;95348.34;;;17.95;27.96
35676;BME280;21790;42.668;23.298;2023-02-20T08:08:00;95347.38;;;17.52;28.39
35676;BME280;21790;42.668;23.298;2023-02-20T08:10:27;95337.69;;;17.47;28.31
35676;BME280;21790;42.668;23.298;2023-02-20T08:12:53;95333.34;;;17.92;27.42
35676;BME280;21790;42.668;23.298;2023-02-20T08:15:20;95332.72;;;18.40;27.33
35676;BME280;21790;42.668;23.298;2023-02-20T08:17:46;95344.69;;;18.09;27.21
35676;BME280;21790;42.668;23.298;2023-02-20T08:20:14;95349.94;;;18.02;27.20
35676;BME280;21790;42.668;23.298;2023-02-20T08:22:40;95337.41;;;17.91;27.41
35676;BME280;21790;42.668;23.298;2023-02-20T08:25:06;95356.91;;;17.86;27.85
35676;BME280;21790;42.668;23.298;2023-02-20T08:27:31;95341.63;;;17.81;27.53
35676;BME280;21790;42.668;23.298;2023-02-20T08:29:58;95362.81;;;18.19;27.57
35676;BME280;21790;42.668;23.298;2023-02-20T08:32:23;95346.28;;;17.90;27.61
35676;BME280;21790;42.668;23.298;2023-02-20T08:34:49;95362.28;;;18.15;27.26
35676;BME280;21790;42.668;23.298;2023-02-20T08:37:15;95357.91;;;18.09;27.85
35676;BME280;21790;42.668;23.298;2023-02-20T08:39:40;95360.03;;;18.51;27.44
35676;BME280;21790;42.668;23.298;2023-02-20T08:42:06;95351.22;;;19.00;26.98
35676;BME280;21790;42.668;23.298;2023-02-20T08:44:31;95362.00;;;18.70;26.61
35676;BME280;21790;42.668;23.298;2023-02-20T08:46:57;95345.81;;;18.91;26.63
35676;BME280;21790;42.668;23.298;2023-02-20T08:49:22;95345.03;;;18.85;26.69
35676;BME280;21790;42.668;23.298;2023-02-20T08:51:52;95344.78;;;18.89;26.78
35676;BME280;21790;42.668;23.298;2023-02-20T08:54:18;95347.63;;;18.57;26.75
35676;BME280;21790;42.668;23.298;2023-02-20T08:56:43;95347.84;;;18.91;26.86
35676;BME280;21790;42.668;23.298;2023-02-20T08:59:09;95346.50;;;18.75;26.26
35676;BME280;21790;42.668;23.298;2023-02-20T09:01:35;95348.06;;;18.82;26.21
35676;BME280;21790;42.668;23.298;2023-02-20T09:04:00;95347.94;;;18.65;26.76
35676;BME280;21790;42.668;23.298;2023-02-20T09:06:27;95347.50;;;18.77;26.44
35676;BME280;21790;42.668;23.298;2023-02-20T09:08:53;95352.81;;;19.12;26.45
35676;BME280;21790;42.668;23.298;2023-02-20T09:11:19;95350.66;;;18.91;26.08
35676;BME280;21790;42.668;23.298;2023-02-20T09:13:47;95355.22;;;18.88;26.53
35676;BME280;21790;42.668;23.298;2023-02-20T09:16:15;95351.72;;;19.04;26.37
35676;BME280;21790;42.668;23.298;2023-02-20T09:18:43;95347.50;;;19.20;26.25
35676;BME280;21790;42.668;23.298;2023-02-20T09:21:10;95352.59;;;19.27;25.70
35676;BME280;21790;42.668;23.298;2023-02-20T09:23:36;95350.75;;;19.07;26.12
35676;BME280;21790;42.668;23.298;2023-02-20T09:26:02;95332.06;;;18.93;25.90
35676;BME280;21790;42.668;23.298;2023-02-20T09:28:27;95346.84;;;18.94;26.03
35676;BME280;21790;42.668;23.298;2023-02-20T09:30:53;95341.66;;;19.23;26.06
35676;BME280;21790;42.668;23.298;2023-02-20T09:33:20;95341.34;;;19.16;26.03
35676;BME280;21790;42.668;23.298;2023-02-20T09:35:46;95339.81;;;19.15;25.94
35676;BME280;21790;42.668;23.298;2023-02-20T09:38:14;95348.78;;;19.25;25.93
35676;BME280;21790;42.668;23.298;2023-02-20T09:40:40;95349.75;;;19.81;25.59
35676;BME280;21790;42.668;23.298;2023-02-20T09:46:20;95342.97;;;20.54;24.36
35676;BME280;21790;42.668;23.298;2023-02-20T09:51:33;95337.03;;;20.91;24.92
35676;BME280;21790;42.668;23.298;2023-02-20T09:56:53;95323.09;;;21.49;23.73
35676;BME280;21790;42.668;23.298;2023-02-20T09:59:27;95327.28;;;21.14;24.42
35676;BME280;21790;42.668;23.298;2023-02-20T10:02:15;95346.00;;;20.06;24.65
35676;BME280;21790;42.668;23.298;2023-02-20T10:04:46;95349.59;;;20.29;24.27
35676;BME280;21790;42.668;23.298;2023-02-20T10:07:28;95347.50;;;20.24;24.40
35676;BME280;21790;42.668;23.298;2023-02-20T10:09:56;95356.75;;;20.35;24.27
35676;BME280;21790;42.668;23.298;2023-02-20T10:17:53;95352.53;;;21.37;22.70
35676;BME280;21790;42.668;23.298;2023-02-20T10:23:11;95326.88;;;21.57;22.25
35676;BME280;21790;42.668;23.298;2023-02-20T10:25:43;95331.91;;;21.69;21.65
35676;BME280;21790;42.668;23.298;2023-02-20T10:28:14;95319.81;;;21.28;21.92
35676;BME280;21790;42.668;23.298;2023-02-20T10:30:46;95310.16;;;21.76;21.84
35676;BME280;21790;42.668;23.298;2023-02-20T10:38:54;95317.56;;;22.49;21.48
35676;BME280;21790;42.668;23.298;2023-02-20T10:41:33;95312.22;;;22.46;20.76
35676;BME280;21790;42.668;23.298;2023-02-20T10:44:04;95305.09;;;22.39;20.99
35676;BME280;21790;42.668;23.298;2023-02-20T10:46:41;95306.13;;;22.66;20.39
35676;BME280;21790;42.668;23.298;2023-02-20T10:49:15;95296.16;;;22.95;20.61
35676;BME280;21790;42.668;23.298;2023-02-20T10:51:45;95296.66;;;23.18;20.53
35676;BME280;21790;42.668;23.298;2023-02-20T10:54:36;95297.63;;;23.02;20.17
35676;BME280;21790;42.668;23.298;2023-02-20T10:57:10;95305.41;;;22.00;21.07
35676;BME280;21790;42.668;23.298;2023-02-20T11:02:21;95284.06;;;22.46;20.82
35676;BME280;21790;42.668;23.298;2023-02-20T11:04:55;95302.50;;;22.47;21.58
35676;BME280;21790;42.668;23.298;2023-02-20T11:07:22;95293.78;;;22.15;21.33
35676;BME280;21790;42.668;23.298;2023-02-20T11:09:48;95298.72;;;22.39;21.18
35676;BME280;21790;42.668;23.298;2023-02-20T11:12:31;95283.28;;;22.75;21.53
35676;BME280;21790;42.668;23.298;2023-02-20T11:15:04;95265.38;;;22.43;21.46
35676;BME280;21790;42.668;23.298;2023-02-20T11:17:32;95270.22;;;22.97;21.64
35676;BME280;21790;42.668;23.298;2023-02-20T11:19:59;95274.88;;;23.37;21.01
35676;BME280;21790;42.668;23.298;2023-02-20T11:25:36;95273.34;;;22.69;21.61
35676;BME280;21790;42.668;23.298;2023-02-20T11:30:35;95271.59;;;22.06;21.99
35676;BME280;21790;42.668;23.298;2023-02-20T11:33:22;95257.13;;;22.21;21.68
35676;BME280;21790;42.668;23.298;2023-02-20T11:35:57;95257.94;;;22.16;22.01
35676;BME280;21790;42.668;23.298;2023-02-20T11:38:34;95260.19;;;21.87;22.25
35676;BME280;21790;42.668;23.298;2023-02-20T11:41:01;95240.66;;;21.18;22.58
35676;BME280;21790;42.668;23.298;2023-02-20T11:43:37;95249.56;;;21.22;22.67
35676;BME280;21790;42.668;23.298;2023-02-20T11:46:19;95253.94;;;21.18;22.85
35676;BME280;21790;42.668;23.298;2023-02-20T11:49:05;95260.69;;;21.45;22.50
35676;BME280;21790;42.668;23.298;2023-02-20T11:51:45;95268.91;;;21.43;22.79
35676;BME280;21790;42.668;23.298;2023-02-20T11:54:16;95263.81;;;21.36;23.04
35676;BME280;21790;42.668;23.298;2023-02-20T11:56:56;95264.63;;;21.31;22.95
35676;BME280;21790;42.668;23.298;2023-02-20T11:59:36;95251.66;;;21.63;22.43
35676;BME280;21790;42.668;23.298;2023-02-20T12:04:41;95260.91;;;21.58;22.20
35676;BME280;21790;42.668;23.298;2023-02-20T12:07:37;95258.66;;;22.22;22.11
35676;BME280;21790;42.668;23.298;2023-02-20T12:10:26;95253.91;;;22.65;21.29
35676;BME280;21790;42.668;23.298;2023-02-20T12:12:53;95244.00;;;21.93;21.06
35676;BME280;21790;42.668;23.298;2023-02-20T12:15:23;95230.88;;;22.37;20.98
35676;BME280;21790;42.668;23.298;2023-02-20T12:20:40;95249.41;;;22.27;21.48
35676;BME280;21790;42.668;23.298;2023-02-20T12:23:27;95248.47;;;22.19;21.68
35676;BME280;21790;42.668;23.298;2023-02-20T12:26:21;95248.31;;;22.35;21.45
35676;BME280;21790;42.668;23.298;2023-02-20T12:34:20;95264.88;;;22.15;21.89
35676;BME280;21790;42.668;23.298;2023-02-20T12:37:02;95250.63;;;22.31;21.44
35676;BME280;21790;42.668;23.298;2023-02-20T12:47:42;95257.16;;;21.80;22.17
35676;BME280;21790;42.668;23.298;2023-02-20T12:58:49;95238.31;;;21.22;22.62
35676;BME280;21790;42.668;23.298;2023-02-20T13:01:20;95226.84;;;21.20;22.71
35676;BME280;21790;42.668;23.298;2023-02-20T13:06:42;95232.66;;;21.34;22.63
35676;BME280;21790;42.668;23.298;2023-02-20T13:09:29;95239.25;;;21.42;22.60
35676;BME280;21790;42.668;23.298;2023-02-20T13:12:04;95243.84;;;21.45;22.91
35676;BME280;21790;42.668;23.298;2023-02-20T13:22:29;95262.25;;;21.46;22.15
35676;BME280;21790;42.668;23.298;2023-02-20T13:33:36;95255.63;;;20.63;23.07
35676;BME280;21790;42.668;23.298;2023-02-20T13:36:18;95260.25;;;20.55;23.40
35676;BME280;21790;42.668;23.298;2023-02-20T13:42:06;95262.28;;;20.66;23.27
35676;BME280;21790;42.668;23.298;2023-02-20T13:44:48;95259.50;;;20.55;23.51
35676;BME280;21790;42.668;23.298;2023-02-20T13:52:46;95275.81;;;20.73;23.24
35676;BME280;21790;42.668;23.298;2023-02-20T13:55:22;95273.56;;;20.32;23.71
35676;BME280;21790;42.668;23.298;2023-02-20T14:03:16;95257.72;;;19.79;24.99
35676;BME280;21790;42.668;23.298;2023-02-20T14:05:42;95269.19;;;19.81;24.91
35676;BME280;21790;42.668;23.298;2023-02-20T14:08:18;95267.16;;;20.04;25.02
35676;BME280;21790;42.668;23.298;2023-02-20T14:10:44;95255.44;;;20.11;24.31
35676;BME280;21790;42.668;23.298;2023-02-20T14:13:20;95263.59;;;20.09;25.01
35676;BME280;21790;42.668;23.298;2023-02-20T14:15:50;95257.97;;;20.20;24.48
35676;BME280;21790;42.668;23.298;2023-02-20T14:18:18;95260.78;;;20.20;24.29
35676;BME280;21790;42.668;23.298;2023-02-20T14:20:45;95263.84;;;20.22;24.38
35676;BME280;21790;42.668;23.298;2023-02-20T14:23:27;95264.09;;;20.46;24.70
35676;BME280;21790;42.668;23.298;2023-02-20T14:26:02;95278.88;;;20.14;24.74
35676;BME280;21790;42.668;23.298;2023-02-20T14:28:33;95279.66;;;20.14;24.41
35676;BME280;21790;42.668;23.298;2023-02-20T14:33:38;95296.75;;;19.88;25.02
35676;BME280;21790;42.668;23.298;2023-02-20T14:36:17;95291.91;;;19.89;25.20
35676;BME280;21790;42.668;23.298;2023-02-20T14:41:23;95285.66;;;19.35;26.00
35676;BME280;21790;42.668;23.298;2023-02-20T14:43:59;95286.47;;;19.46;26.16
35676;BME280;21790;42.668;23.298;2023-02-20T14:46:32;95288.78;;;19.59;25.60
35676;BME280;21790;42.668;23.298;2023-02-20T14:51:30;95291.81;;;19.50;25.51
35676;BME280;21790;42.668;23.298;2023-02-20T14:54:01;95289.53;;;19.54;25.66
35676;BME280;21790;42.668;23.298;2023-02-20T14:56:28;95293.81;;;19.44;25.69
35676;BME280;21790;42.668;23.298;2023-02-20T14:58:55;95292.81;;;19.41;25.67
35676;BME280;21790;42.668;23.298;2023-02-20T15:04:00;95316.72;;;19.37;26.03
35676;BME280;21790;42.668;23.298;2023-02-20T15:06:28;95313.59;;;19.12;26.45
35676;BME280;21790;42.668;23.298;2023-02-20T15:08:59;95330.00;;;19.36;26.06